Time;durP1;ratioP1;P1;durP2;ratioP2;P2;SDS_P1;SDS_P2;PMS_P1;PMS_P2;Temp;Humidity;BMP_temperature;BMP_pressure;BME280_temperature;BME280_humidity;BME280_pressure;Samples;Min_cycle;Max_cycle;Signal;HPM_P1;HPM_P2
2021/12/29 00:01:09;;;;;;;12.63;6.80;;;;;;;-1.17;100.00;97493.33;1690946;85;21085;-75
2021/12/29 00:03:35;;;;;;;13.47;7.87;;;;;;;-1.15;100.00;97487.39;1671439;85;21516;-74
2021/12/29 00:06:02;;;;;;;15.13;8.10;;;;;;;-1.17;100.00;97484.90;1662575;86;21042;-74
2021/12/29 00:08:29;;;;;;;17.60;9.50;;;;;;;-1.17;100.00;97492.85;1661842;86;21076;-74
2021/12/29 00:10:57;;;;;;;15.07;7.47;;;;;;;-1.17;100.00;97494.18;1727170;83;20994;-74
2021/12/29 00:13:25;;;;;;;14.17;7.90;;;;;;;-1.17;100.00;97492.85;1727463;83;21022;-74
2021/12/29 00:15:58;;;;;;;14.43;7.30;;;;;;;-1.22;100.00;97500.92;1726506;83;21140;-74
2021/12/29 00:18:29;;;;;;;18.73;8.75;;;;;;;-1.23;100.00;97500.10;1700400;84;21073;-75
2021/12/29 00:20:57;;;;;;;15.67;8.13;;;;;;;-1.22;100.00;97505.75;1686108;84;21022;-74
2021/12/29 00:23:24;;;;;;;18.43;10.03;;;;;;;-1.22;100.00;97514.18;1674182;86;21053;-74
2021/12/29 00:25:51;;;;;;;20.77;10.33;;;;;;;-1.23;100.00;97510.70;1674346;86;21137;-75
2021/12/29 00:28:19;;;;;;;23.37;12.27;;;;;;;-1.23;100.00;97511.21;1673986;86;21642;-74
2021/12/29 00:30:46;;;;;;;22.03;11.83;;;;;;;-1.24;100.00;97511.72;1673982;86;21081;-74
2021/12/29 00:33:31;;;;;;;24.57;13.13;;;;;;;-1.23;100.00;97505.91;1673633;86;21009;-74
2021/12/29 00:36:17;;;;;;;24.30;13.40;;;;;;;-1.23;100.00;97500.61;1673983;86;21086;-74
2021/12/29 00:39:02;;;;;;;24.73;13.63;;;;;;;-1.24;100.00;97502.44;1673762;86;21558;-75
2021/12/29 00:41:41;;;;;;;24.60;13.57;;;;;;;-1.28;100.00;97493.11;1673884;86;21119;-74
2021/12/29 00:44:15;;;;;;;25.63;12.97;;;;;;;-1.31;100.00;97500.08;1595723;90;21553;-74
2021/12/29 00:46:52;;;;;;;25.17;13.03;;;;;;;-1.34;100.00;97507.02;1595853;90;21119;-74
2021/12/29 00:49:17;;;;;;;23.00;12.57;;;;;;;-1.36;100.00;97507.17;1592986;90;21127;-74
2021/12/29 00:51:44;;;;;;;24.03;12.37;;;;;;;-1.36;100.00;97504.52;1595566;90;21055;-74
2021/12/29 00:54:11;;;;;;;24.83;13.33;;;;;;;-1.36;100.00;97505.84;1595717;90;21130;-73
2021/12/29 00:56:38;;;;;;;20.97;11.60;;;;;;;-1.36;100.00;97502.38;1595576;90;21110;-74
2021/12/29 00:59:05;;;;;;;24.63;12.13;;;;;;;-1.35;100.00;97505.34;1595490;90;21079;-75
2021/12/29 01:01:32;;;;;;;23.10;11.33;;;;;;;-1.36;100.00;97510.33;1595175;90;21090;-75
2021/12/29 01:03:59;;;;;;;26.17;12.03;;;;;;;-1.37;100.00;97519.25;1595314;90;21524;-74
2021/12/29 01:06:26;;;;;;;19.77;9.83;;;;;;;-1.41;100.00;97517.92;1594987;90;21067;-74
2021/12/29 01:08:53;;;;;;;21.20;10.90;;;;;;;-1.42;100.00;97520.22;1595344;90;21117;-75
2021/12/29 01:11:20;;;;;;;20.53;10.87;;;;;;;-1.45;100.00;97520.05;1595105;90;21112;-75
2021/12/29 01:13:49;;;;;;;20.57;9.83;;;;;;;-1.45;100.00;97532.45;1595192;90;21031;-74
2021/12/29 01:19:13;;;;;;;20.23;10.10;;;;;;;-1.52;100.00;97540.22;1622107;87;21118;-74
2021/12/29 01:21:44;;;;;;;21.27;10.63;;;;;;;-1.58;100.00;97548.27;1627932;87;21546;-73
2021/12/29 01:24:11;;;;;;;20.73;9.70;;;;;;;-1.65;100.00;97554.36;1655664;87;21045;-74
2021/12/29 01:26:38;;;;;;;21.60;10.43;;;;;;;-1.72;100.00;97548.84;1655813;87;21001;-75
2021/12/29 01:29:04;;;;;;;22.07;10.93;;;;;;;-1.74;100.00;97545.02;1655701;87;21129;-74
2021/12/29 01:31:31;;;;;;;22.93;11.37;;;;;;;-1.75;100.00;97552.64;1655863;87;21131;-75
2021/12/29 01:33:59;;;;;;;23.27;11.90;;;;;;;-1.80;100.00;97556.74;1656332;87;21070;-74
2021/12/29 01:36:26;;;;;;;23.23;11.87;;;;;;;-1.83;100.00;97561.84;1656520;87;21190;-74
2021/12/29 01:38:53;;;;;;;21.97;11.43;;;;;;;-1.86;100.00;97570.11;1656500;87;21005;-74
2021/12/29 01:41:20;;;;;;;22.20;11.63;;;;;;;-1.87;100.00;97563.64;1656405;87;21065;-74
2021/12/29 01:43:47;;;;;;;24.90;12.70;;;;;;;-1.89;100.00;97561.61;1656763;87;21066;-74
2021/12/29 01:46:13;;;;;;;24.40;12.97;;;;;;;-1.93;100.00;97555.79;1656382;87;21543;-74
2021/12/29 01:48:41;;;;;;;28.13;13.83;;;;;;;-1.95;100.00;97556.44;1656251;87;21045;-74
2021/12/29 01:51:07;;;;;;;29.03;14.50;;;;;;;-1.97;100.00;97561.06;1655811;87;21082;-73
2021/12/29 01:53:48;;;;;;;26.63;13.40;;;;;;;-1.99;100.00;97551.12;1656310;87;21069;-74
2021/12/29 01:56:10;;;;;;;27.87;15.00;;;;;;;-2.03;100.00;97549.27;1653354;87;21041;-75
2021/12/29 01:58:38;;;;;;;30.30;15.67;;;;;;;-2.05;100.00;97536.67;1613298;87;21566;-74
2021/12/29 02:01:04;;;;;;;31.23;14.90;;;;;;;-2.07;100.00;97515.29;1656566;87;21028;-75
2021/12/29 02:03:32;;;;;;;33.40;17.17;;;;;;;-2.10;100.00;97478.87;1667801;84;21101;-73
2021/12/29 02:06:00;;;;;;;37.43;19.33;;;;;;;-2.13;100.00;97435.98;1673985;86;21049;-75
2021/12/29 02:08:26;;;;;;;37.57;19.03;;;;;;;-2.17;100.00;97381.69;1674043;86;21018;-74
2021/12/29 02:10:56;;;;;;;37.93;18.80;;;;;;;-2.19;100.00;97323.59;1674157;86;20994;-74
2021/12/29 02:13:23;;;;;;;42.10;21.30;;;;;;;-2.20;100.00;97265.00;1673916;86;21086;-73
2021/12/29 02:15:50;;;;;;;38.00;19.70;;;;;;;-2.22;100.00;97225.95;1673769;84;21643;-73
2021/12/29 02:18:19;;;;;;;38.73;20.07;;;;;;;-2.23;100.00;97204.46;1694963;84;21071;-74
2021/12/29 02:20:50;;;;;;;34.20;17.53;;;;;;;-2.26;100.00;97199.98;1712301;83;21009;-74
2021/12/29 02:23:28;;;;;;;31.83;17.53;;;;;;;-2.29;100.00;97207.23;1703577;84;21016;-74
2021/12/29 02:25:54;;;;;;;25.68;13.85;;;;;;;-2.33;100.00;97220.45;1700318;84;21095;-74
2021/12/29 02:28:34;;;;;;;29.70;15.73;;;;;;;-2.40;100.00;97247.72;1674458;85;21053;-73
2021/12/29 02:31:03;;;;;;;31.93;15.67;;;;;;;-2.51;100.00;97268.17;1629541;87;21098;-74
2021/12/29 02:33:31;;;;;;;29.60;15.33;;;;;;;-2.65;100.00;97278.00;1629306;87;21636;-73
2021/12/29 02:35:59;;;;;;;27.83;14.93;;;;;;;-2.73;100.00;97289.84;1666693;86;21053;-73
2021/12/29 02:38:34;;;;;;;26.60;13.93;;;;;;;-2.77;100.00;97305.69;1674100;86;21005;-73
2021/12/29 02:41:04;;;;;;;27.67;14.47;;;;;;;-2.81;100.00;97314.42;1564018;91;21191;-72
2021/12/29 02:43:37;;;;;;;27.77;14.40;;;;;;;-2.85;100.00;97327.63;1489781;93;21573;-73
2021/12/29 02:46:01;;;;;;;26.07;13.30;;;;;;;-2.92;100.00;97342.41;1462122;97;21123;-73
2021/12/29 02:48:33;;;;;;;27.87;14.13;;;;;;;-2.97;100.00;97352.14;1461309;98;21117;-73
2021/12/29 02:51:00;;;;;;;25.53;14.13;;;;;;;-3.03;100.00;97373.05;1440190;100;21730;-73
2021/12/29 02:53:30;;;;;;;26.57;13.53;;;;;;;-3.10;100.00;97384.72;1461347;98;21147;-74
2021/12/29 02:55:57;;;;;;;25.27;12.83;;;;;;;-3.16;100.00;97397.23;1439948;100;21159;-73
2021/12/29 02:58:26;;;;;;;25.27;13.03;;;;;;;-3.23;100.00;97405.41;1440714;100;21122;-73
2021/12/29 03:00:55;;;;;;;23.83;13.07;;;;;;;-3.31;100.00;97424.16;1462348;98;21125;-73
2021/12/29 03:03:24;;;;;;;25.93;13.63;;;;;;;-3.36;100.00;97434.34;1424616;100;21104;-73
2021/12/29 03:05:51;;;;;;;29.23;14.67;;;;;;;-3.40;100.00;97446.16;1434173;100;21677;-72
2021/12/29 03:08:19;;;;;;;26.23;14.27;;;;;;;-3.39;100.00;97461.55;1424098;100;21151;-73
2021/12/29 03:10:46;;;;;;;28.97;15.80;;;;;;;-3.39;100.00;97466.33;1464546;98;21103;-73
2021/12/29 03:13:14;;;;;;;32.33;16.67;;;;;;;-3.44;100.00;97472.05;1492390;96;21108;-74
2021/12/29 03:15:42;;;;;;;31.33;17.17;;;;;;;-3.50;100.00;97482.39;1491851;95;21125;-72
2021/12/29 03:18:09;;;;;;;32.63;17.20;;;;;;;-3.57;100.00;97493.19;1492146;96;21113;-73
2021/12/29 03:20:36;;;;;;;33.63;17.90;;;;;;;-3.67;100.00;97496.67;1492240;95;21202;-72
2021/12/29 03:23:02;;;;;;;39.70;20.83;;;;;;;-3.69;100.00;97510.52;1495013;96;21603;-73
2021/12/29 03:25:30;;;;;;;38.93;21.57;;;;;;;-3.72;100.00;97512.61;1525395;93;21116;-72
2021/12/29 03:27:58;;;;;;;40.80;22.33;;;;;;;-3.75;100.00;97521.66;1514985;95;21074;-73
2021/12/29 03:30:29;;;;;;;41.60;23.07;;;;;;;-3.78;100.00;97523.75;1541619;93;21177;-72
2021/12/29 03:33:05;;;;;;;38.30;19.87;;;;;;;-3.82;100.00;97531.13;1495410;95;21053;-73
2021/12/29 03:35:43;;;;;;;41.87;21.80;;;;;;;-3.84;100.00;97538.37;1495763;96;21199;-72
2021/12/29 03:38:15;;;;;;;39.93;21.03;;;;;;;-3.86;100.00;97541.14;1551322;91;21049;-73
2021/12/29 03:40:42;;;;;;;36.70;20.17;;;;;;;-3.91;100.00;97544.69;1620489;87;21075;-72
2021/12/29 03:43:10;;;;;;;34.27;18.50;;;;;;;-3.91;100.00;97555.72;1640733;87;21052;-71
2021/12/29 03:45:38;;;;;;;32.60;17.80;;;;;;;-3.91;100.00;97572.41;1640239;87;21115;-72
2021/12/29 03:48:06;;;;;;;35.97;18.80;;;;;;;-3.94;100.00;97567.41;1639617;86;21009;-71
2021/12/29 03:50:33;;;;;;;34.37;18.50;;;;;;;-3.97;100.00;97580.05;1639920;87;21107;-72
2021/12/29 03:53:00;;;;;;;32.17;17.57;;;;;;;-3.97;100.00;97587.97;1639726;87;21032;-72
2021/12/29 03:55:26;;;;;;;30.33;17.07;;;;;;;-3.96;100.00;97590.97;1640302;86;21183;-71
2021/12/29 03:57:54;;;;;;;29.43;16.47;;;;;;;-3.97;100.00;97589.30;1640327;87;21052;-71
2021/12/29 04:00:21;;;;;;;30.90;16.37;;;;;;;-4.02;100.00;97600.25;1640241;87;21152;-72
2021/12/29 04:02:48;;;;;;;30.23;16.77;;;;;;;-4.05;100.00;97601.38;1641216;87;21044;-72
2021/12/29 04:05:18;;;;;;;30.00;17.13;;;;;;;-4.09;100.00;97611.02;1640922;86;21048;-72
2021/12/29 04:07:45;;;;;;;34.10;18.20;;;;;;;-4.12;100.00;97610.00;1644188;86;21092;-72
2021/12/29 04:10:12;;;;;;;31.03;16.77;;;;;;;-4.17;100.00;97620.96;1671845;86;21535;-72
2021/12/29 04:12:41;;;;;;;32.67;17.03;;;;;;;-4.20;100.00;97617.27;1671409;86;21086;-71
2021/12/29 04:15:10;;;;;;;31.57;17.00;;;;;;;-4.27;100.00;97623.58;1671462;86;21058;-72
2021/12/29 04:17:39;;;;;;;32.80;17.47;;;;;;;-4.31;100.00;97628.78;1671649;86;21023;-71
2021/12/29 04:22:58;;;;;;;31.17;16.37;;;;;;;-4.31;100.00;97639.34;1671223;86;21027;-71
2021/12/29 04:25:27;;;;;;;29.90;16.60;;;;;;;-4.33;100.00;97640.45;1671404;86;21027;-71
2021/12/29 04:27:56;;;;;;;34.80;18.03;;;;;;;-4.33;100.00;97650.52;1671498;86;21110;-71
2021/12/29 04:30:24;;;;;;;35.60;19.00;;;;;;;-4.34;100.00;97658.08;1694841;84;21049;-71
2021/12/29 04:32:52;;;;;;;33.03;16.90;;;;;;;-4.36;100.00;97662.66;1701157;84;21562;-71
2021/12/29 04:35:23;;;;;;;34.77;17.67;;;;;;;-4.36;100.00;97666.61;1710612;83;21512;-73
2021/12/29 04:37:51;;;;;;;34.13;17.97;;;;;;;-4.38;100.00;97669.88;1718568;83;21018;-70
2021/12/29 04:40:18;;;;;;;32.57;17.20;;;;;;;-4.42;100.00;97690.91;1718557;83;21022;-72
2021/12/29 04:42:45;;;;;;;38.93;18.87;;;;;;;-4.43;100.00;97690.55;1718475;83;21018;-71
2021/12/29 04:45:14;;;;;;;34.53;17.37;;;;;;;-4.46;100.00;97694.30;1718545;82;21528;-71
2021/12/29 04:47:43;;;;;;;31.50;17.50;;;;;;;-4.51;100.00;97692.55;1718747;83;21050;-71
2021/12/29 04:50:28;;;;;;;33.10;16.87;;;;;;;-4.55;100.00;97696.89;1718882;82;20986;-71
2021/12/29 04:52:57;;;;;;;35.03;17.77;;;;;;;-4.60;100.00;97707.36;1718652;82;21524;-71
2021/12/29 04:55:26;;;;;;;36.40;18.73;;;;;;;-4.58;100.00;97713.83;1718567;83;21023;-73
2021/12/29 04:57:53;;;;;;;35.23;18.77;;;;;;;-4.60;100.00;97725.00;1718378;82;21504;-71
2021/12/29 05:00:21;;;;;;;35.27;17.67;;;;;;;-4.60;100.00;97722.36;1718712;82;21547;-71
2021/12/29 05:02:48;;;;;;;33.40;17.20;;;;;;;-4.62;100.00;97724.27;1729179;82;21034;-72
2021/12/29 05:05:38;;;;;;;38.77;18.83;;;;;;;-4.68;100.00;97736.68;1713362;84;21006;-71
2021/12/29 05:10:36;;;;;;;33.77;18.90;;;;;;;-4.69;100.00;97740.27;1714512;83;21062;-71
2021/12/29 05:13:03;;;;;;;35.73;18.70;;;;;;;-4.68;100.00;97733.55;1714304;83;21536;-72
2021/12/29 05:15:30;;;;;;;35.30;17.90;;;;;;;-4.68;100.00;97738.83;1715064;83;21022;-71
2021/12/29 05:17:59;;;;;;;29.77;15.83;;;;;;;-4.67;100.00;97739.19;1714660;83;21003;-72
2021/12/29 05:20:27;;;;;;;34.00;16.97;;;;;;;-4.66;100.00;97746.61;1713644;84;21039;-71
2021/12/29 05:22:56;;;;;;;30.93;14.90;;;;;;;-4.69;100.00;97753.45;1733252;83;21073;-72
2021/12/29 05:25:25;;;;;;;32.07;17.50;;;;;;;-4.70;100.00;97747.36;1735075;83;21571;-71
2021/12/29 05:27:52;;;;;;;33.03;17.33;;;;;;;-4.74;100.00;97763.09;1734589;83;21014;-72
2021/12/29 05:30:18;;;;;;;30.13;16.97;;;;;;;-4.79;100.00;97762.65;1734953;83;21002;-72
2021/12/29 05:32:45;;;;;;;32.37;16.73;;;;;;;-4.88;100.00;97771.34;1735147;83;21025;-73
2021/12/29 05:35:15;;;;;;;33.47;17.50;;;;;;;-4.91;100.00;97778.19;1734479;83;21049;-74
2021/12/29 05:37:42;;;;;;;31.97;16.70;;;;;;;-4.92;100.00;97780.45;1734949;83;21069;-72
2021/12/29 05:40:11;;;;;;;33.93;18.80;;;;;;;-4.93;100.00;97786.22;1734957;83;21032;-72
2021/12/29 05:42:39;;;;;;;31.80;16.23;;;;;;;-4.93;100.00;97790.66;1734867;83;21068;-72
2021/12/29 05:45:10;;;;;;;31.57;17.23;;;;;;;-4.97;100.00;97797.98;1734931;83;21074;-73
2021/12/29 05:47:36;;;;;;;34.73;18.10;;;;;;;-5.02;100.00;97794.90;1735222;83;21026;-72
2021/12/29 05:50:08;;;;;;;33.07;17.80;;;;;;;-5.01;100.00;97808.41;1734457;83;21033;-73
2021/12/29 05:52:36;;;;;;;32.07;17.27;;;;;;;-5.01;100.00;97809.27;1734842;83;21021;-72
2021/12/29 05:55:05;;;;;;;33.70;16.90;;;;;;;-5.04;100.00;97802.93;1734911;83;21037;-74
2021/12/29 05:57:34;;;;;;;35.20;18.10;;;;;;;-5.06;100.00;97817.21;1734618;83;21146;-72
2021/12/29 06:00:02;;;;;;;37.17;18.03;;;;;;;-5.09;100.00;97819.61;1734571;83;21080;-72
2021/12/29 06:02:31;;;;;;;31.70;16.40;;;;;;;-5.07;100.00;97822.12;1737651;82;21102;-73
2021/12/29 06:04:58;;;;;;;33.40;17.40;;;;;;;-5.09;100.00;97826.69;1771915;81;21026;-68
2021/12/29 06:07:25;;;;;;;33.83;16.30;;;;;;;-5.10;100.00;97831.09;1772039;81;21074;-68
2021/12/29 06:09:52;;;;;;;32.90;16.20;;;;;;;-5.11;100.00;97836.52;1754149;82;21526;-69
2021/12/29 06:12:21;;;;;;;34.03;17.77;;;;;;;-5.13;100.00;97843.69;1686749;85;21068;-67
2021/12/29 06:14:50;;;;;;;37.30;17.97;;;;;;;-5.23;100.00;97848.41;1671744;85;21032;-68
2021/12/29 06:17:18;;;;;;;33.10;16.83;;;;;;;-5.23;100.00;97851.53;1686665;85;21066;-72
2021/12/29 06:19:45;;;;;;;35.67;18.43;;;;;;;-5.23;100.00;97858.11;1687825;83;21535;-71
2021/12/29 06:22:12;;;;;;;33.87;16.57;;;;;;;-5.24;100.00;97856.42;1717674;83;21030;-72
2021/12/29 06:24:40;;;;;;;35.63;18.20;;;;;;;-5.24;100.00;97853.33;1699726;84;21041;-72
2021/12/29 06:27:06;;;;;;;42.37;20.67;;;;;;;-5.29;100.00;97852.87;1700183;83;21013;-72
2021/12/29 06:29:33;;;;;;;32.37;16.07;;;;;;;-5.28;100.00;97860.28;1699802;83;21002;-70
2021/12/29 06:32:00;;;;;;;35.37;17.63;;;;;;;-5.25;100.00;97867.45;1700361;83;21551;-70
2021/12/29 06:34:29;;;;;;;37.00;17.57;;;;;;;-5.26;100.00;97867.58;1699526;84;21017;-70
2021/12/29 06:36:58;;;;;;;35.10;17.13;;;;;;;-5.24;100.00;97870.92;1699818;84;21023;-71
2021/12/29 06:39:26;;;;;;;32.33;17.17;;;;;;;-5.25;100.00;97875.84;1698380;82;21029;-73
2021/12/29 06:41:53;;;;;;;33.23;18.20;;;;;;;-5.25;100.00;97879.80;1687102;84;21052;-73
2021/12/29 06:44:20;;;;;;;35.67;17.30;;;;;;;-5.29;100.00;97885.80;1688784;83;21538;-73
2021/12/29 06:46:47;;;;;;;34.53;17.37;;;;;;;-5.30;100.00;97887.23;1689824;84;21045;-71
2021/12/29 06:49:15;;;;;;;32.80;16.33;;;;;;;-5.28;100.00;97897.17;1689891;84;21020;-72
2021/12/29 06:51:41;;;;;;;35.03;15.93;;;;;;;-5.26;100.00;97905.32;1688898;84;21471;-72
2021/12/29 06:54:08;;;;;;;34.40;18.10;;;;;;;-5.23;100.00;97905.05;1687072;84;21068;-72
2021/12/29 06:56:35;;;;;;;32.67;16.27;;;;;;;-5.27;100.00;97911.53;1690191;84;21025;-72
2021/12/29 06:59:02;;;;;;;36.47;17.43;;;;;;;-5.27;100.00;97914.17;1685912;84;21013;-70
2021/12/29 07:01:30;;;;;;;32.43;17.33;;;;;;;-5.27;100.00;97919.93;1686203;84;21348;-71
2021/12/29 07:03:57;;;;;;;31.60;16.60;;;;;;;-5.26;100.00;97926.40;1684970;84;21044;-71
2021/12/29 07:06:25;;;;;;;34.50;17.73;;;;;;;-5.29;100.00;97926.64;1687631;84;21021;-73
2021/12/29 07:08:51;;;;;;;34.57;16.97;;;;;;;-5.32;100.00;97929.51;1698530;83;21005;-71
2021/12/29 07:11:20;;;;;;;33.80;17.57;;;;;;;-5.31;100.00;97932.97;1692607;84;21025;-71
2021/12/29 07:13:47;;;;;;;36.53;19.17;;;;;;;-5.32;100.00;97922.92;1687660;84;20961;-72
2021/12/29 07:16:13;;;;;;;33.97;17.13;;;;;;;-5.30;100.00;97925.44;1691432;84;21040;-72
2021/12/29 07:18:40;;;;;;;34.50;16.97;;;;;;;-5.27;100.00;97932.61;1698288;83;20984;-72
2021/12/29 07:21:07;;;;;;;33.77;16.23;;;;;;;-5.29;100.00;97932.36;1689819;84;21016;-73
2021/12/29 07:23:34;;;;;;;35.37;17.67;;;;;;;-5.27;100.00;97934.42;1702079;83;20995;-72
2021/12/29 07:26:00;;;;;;;32.13;16.97;;;;;;;-5.29;100.00;97938.49;1700524;83;21050;-72
2021/12/29 07:28:27;;;;;;;39.73;21.73;;;;;;;-5.30;100.00;97935.48;1699364;83;21007;-74
2021/12/29 07:30:54;;;;;;;32.17;18.13;;;;;;;-5.30;100.00;97942.07;1689158;83;20994;-71
2021/12/29 07:33:21;;;;;;;37.97;20.03;;;;;;;-5.27;100.00;97947.11;1697090;83;21006;-72
2021/12/29 07:35:48;;;;;;;36.93;19.40;;;;;;;-5.28;100.00;97950.69;1696192;83;21617;-71
2021/12/29 07:38:15;;;;;;;34.80;18.90;;;;;;;-5.31;100.00;97950.95;1703595;83;21010;-71
2021/12/29 07:40:42;;;;;;;35.33;18.30;;;;;;;-5.37;100.00;97956.70;1711354;83;20990;-71
2021/12/29 07:43:09;;;;;;;33.83;17.50;;;;;;;-5.37;100.00;97966.74;1703873;83;21026;-71
2021/12/29 07:45:41;;;;;;;38.63;20.10;;;;;;;-5.37;100.00;97964.59;1696099;83;21082;-70
2021/12/29 07:48:06;;;;;;;37.27;19.80;;;;;;;-5.40;100.00;97969.64;1691623;83;21010;-70
2021/12/29 07:50:33;;;;;;;36.87;20.40;;;;;;;-5.40;100.00;97976.69;1698369;83;21039;-72
2021/12/29 07:53:01;;;;;;;40.53;21.57;;;;;;;-5.36;100.00;97979.45;1703496;83;21022;-72
2021/12/29 07:55:28;;;;;;;35.83;19.40;;;;;;;-5.38;100.00;97982.20;1695272;83;21015;-69
2021/12/29 07:57:55;;;;;;;34.57;18.93;;;;;;;-5.39;100.00;97982.33;1646501;85;21089;-70
2021/12/29 08:00:23;;;;;;;35.23;18.90;;;;;;;-5.37;100.00;97984.36;1629736;86;21019;-73
2021/12/29 08:02:51;;;;;;;47.33;24.60;;;;;;;-5.36;100.00;97980.78;1698562;83;20963;-72
2021/12/29 08:05:25;;;;;;;41.83;21.73;;;;;;;-5.38;100.00;97986.65;1696718;83;21007;-71
2021/12/29 08:07:52;;;;;;;36.43;20.10;;;;;;;-5.32;100.00;97986.15;1693798;83;21022;-71
2021/12/29 08:10:20;;;;;;;48.00;29.07;;;;;;;-5.29;100.00;97982.42;1700651;83;21026;-70
2021/12/29 08:12:48;;;;;;;36.90;22.07;;;;;;;-5.26;100.00;97984.36;1708998;83;21089;-71
2021/12/29 08:15:15;;;;;;;35.27;18.70;;;;;;;-5.26;100.00;97984.36;1701659;83;21077;-72
2021/12/29 08:17:43;;;;;;;42.87;23.73;;;;;;;-5.26;100.00;97978.23;1696482;83;21030;-72
2021/12/29 08:20:10;;;;;;;37.93;20.83;;;;;;;-5.22;100.00;97971.78;1689650;83;21552;-71
2021/12/29 08:22:38;;;;;;;32.27;17.07;;;;;;;-5.15;100.00;97974.28;1698831;82;21445;-71
2021/12/29 08:25:08;;;;;;;39.33;22.20;;;;;;;-5.11;100.00;97974.38;1718927;82;21001;-71
2021/12/29 08:27:37;;;;;;;33.30;17.83;;;;;;;-5.13;100.00;97984.67;1720082;82;21053;-71
2021/12/29 08:30:07;;;;;;;32.43;17.53;;;;;;;-5.15;100.00;97982.19;1716255;82;21030;-71
2021/12/29 08:32:35;;;;;;;31.00;17.53;;;;;;;-5.16;100.00;97981.81;1719051;81;21016;-71
2021/12/29 08:35:09;;;;;;;27.80;15.00;;;;;;;-5.19;100.00;97987.33;1661643;85;21001;-71
2021/12/29 08:37:37;;;;;;;32.60;16.13;;;;;;;-5.18;100.00;97987.20;1674749;84;21117;-71
2021/12/29 08:40:07;;;;;;;32.50;16.47;;;;;;;-5.21;100.00;97986.61;1675046;84;21059;-71
2021/12/29 08:42:35;;;;;;;31.97;16.87;;;;;;;-5.19;100.00;97984.23;1664752;85;21060;-70
2021/12/29 08:45:04;;;;;;;37.03;18.57;;;;;;;-5.14;100.00;97979.89;1714399;82;21015;-72
2021/12/29 08:47:30;;;;;;;34.13;18.50;;;;;;;-5.12;100.00;97979.77;1699923;82;21022;-67
2021/12/29 08:49:57;;;;;;;42.03;22.07;;;;;;;-5.13;100.00;97980.27;1669802;85;21444;-70
2021/12/29 08:52:24;;;;;;;53.63;25.93;;;;;;;-5.11;100.00;97975.70;1706021;83;20976;-68
2021/12/29 08:54:52;;;;;;;35.77;18.73;;;;;;;-5.12;100.00;97978.45;1668727;85;21097;-67
2021/12/29 08:57:19;;;;;;;34.43;17.87;;;;;;;-5.11;100.00;97977.02;1714608;83;21216;-68
2021/12/29 08:59:46;;;;;;;36.40;18.77;;;;;;;-5.13;100.00;97975.45;1676122;85;21009;-71
2021/12/29 09:02:13;;;;;;;31.73;16.80;;;;;;;-5.11;100.00;97981.46;1717658;82;21043;-71
2021/12/29 09:04:40;;;;;;;30.17;16.80;;;;;;;-5.12;100.00;97981.09;1725934;82;20987;-70
2021/12/29 09:07:10;;;;;;;33.90;21.00;;;;;;;-5.18;100.00;97975.34;1720318;82;20988;-73
2021/12/29 09:09:38;;;;;;;32.57;17.73;;;;;;;-5.15;100.00;97978.23;1716038;82;21021;-74
2021/12/29 09:12:06;;;;;;;29.03;16.20;;;;;;;-5.12;100.00;97980.60;1719076;82;21163;-73
2021/12/29 09:14:34;;;;;;;33.03;17.23;;;;;;;-5.12;100.00;97987.68;1717949;82;20979;-71
2021/12/29 09:17:02;;;;;;;34.33;17.73;;;;;;;-5.13;100.00;97990.80;1719732;82;21039;-75
2021/12/29 09:19:33;;;;;;;39.00;21.23;;;;;;;-5.15;100.00;97992.23;1711091;82;21049;-74
2021/12/29 09:21:57;;;;;;;35.03;19.17;;;;;;;-5.12;100.00;97992.95;1669736;84;21544;-73
2021/12/29 09:24:25;;;;;;;47.03;27.83;;;;;;;-5.10;100.00;97993.17;1710608;83;20999;-74
2021/12/29 09:26:51;;;;;;;90.10;38.23;;;;;;;-5.08;100.00;97993.91;1709524;83;21053;-77
2021/12/29 09:29:21;;;;;;;84.07;34.13;;;;;;;-5.03;100.00;97994.84;1703747;83;21089;-72
2021/12/29 09:31:48;;;;;;;89.60;35.67;;;;;;;-4.95;100.00;97991.13;1704751;83;21469;-75
2021/12/29 09:34:15;;;;;;;55.87;24.53;;;;;;;-4.98;100.00;97996.14;1689609;83;20955;-73
2021/12/29 09:36:41;;;;;;;43.77;20.77;;;;;;;-4.93;100.00;97996.27;1704726;83;21025;-72
2021/12/29 09:39:08;;;;;;;63.67;30.27;;;;;;;-4.94;100.00;97990.14;1707581;83;21018;-74
2021/12/29 09:41:35;;;;;;;39.43;21.40;;;;;;;-4.92;100.00;98000.56;1705429;83;21022;-75
2021/12/29 09:44:03;;;;;;;39.30;18.70;;;;;;;-4.93;100.00;97999.73;1705072;83;21151;-74
2021/12/29 09:46:30;;;;;;;28.60;15.40;;;;;;;-4.98;100.00;98000.59;1708086;83;21042;-72
2021/12/29 09:48:58;;;;;;;51.57;25.33;;;;;;;-5.00;100.00;97995.92;1654651;83;21007;-73
2021/12/29 09:51:25;;;;;;;38.30;21.23;;;;;;;-4.99;100.00;97988.38;1669039;83;21009;-73
2021/12/29 09:53:52;;;;;;;30.30;15.30;;;;;;;-4.97;100.00;97982.02;1708867;83;21058;-72
2021/12/29 09:56:19;;;;;;;24.33;13.17;;;;;;;-4.94;100.00;97973.50;1697745;83;21060;-73
2021/12/29 09:58:46;;;;;;;22.17;11.87;;;;;;;-4.93;100.00;97977.82;1706059;83;21057;-73
2021/12/29 10:01:15;;;;;;;21.53;10.73;;;;;;;-4.91;100.00;97974.58;1708297;83;21073;-74
2021/12/29 10:03:44;;;;;;;51.43;27.77;;;;;;;-4.87;100.00;97969.40;1704405;83;21014;-75
2021/12/29 10:06:11;;;;;;;56.27;27.70;;;;;;;-4.84;100.00;97969.98;1703842;83;21069;-73
2021/12/29 10:08:40;;;;;;;37.00;18.17;;;;;;;-4.78;100.00;97968.64;1708369;81;21042;-75
2021/12/29 10:11:11;;;;;;;54.90;21.73;;;;;;;-4.76;100.00;97968.06;1712990;83;21039;-72
2021/12/29 10:13:41;;;;;;;64.47;24.47;;;;;;;-4.74;100.00;97974.53;1682415;84;21460;-73
2021/12/29 10:16:11;;;;;;;27.50;13.93;;;;;;;-4.71;100.00;97975.58;1689322;83;21099;-72
2021/12/29 10:18:43;;;;;;;37.23;18.23;;;;;;;-4.75;100.00;97979.44;1680895;83;21076;-70
2021/12/29 10:21:22;;;;;;;29.47;14.93;;;;;;;-4.81;100.00;97984.25;1707159;83;21052;-70
2021/12/29 10:23:51;;;;;;;34.03;20.83;;;;;;;-4.87;100.00;97984.76;1688876;83;21094;-73
2021/12/29 10:26:31;;;;;;;31.07;18.47;;;;;;;-4.86;100.00;97986.91;1641712;85;21061;-70
2021/12/29 10:29:02;;;;;;;27.27;15.87;;;;;;;-4.85;100.00;97986.78;1615830;88;21530;-70
2021/12/29 10:31:37;;;;;;;89.80;38.73;;;;;;;-4.83;100.00;97982.71;1613198;88;21075;-70
2021/12/29 10:34:08;;;;;;;52.50;26.13;;;;;;;-4.85;100.00;97990.74;1627650;88;21048;-72
2021/12/29 10:36:43;;;;;;;25.23;13.93;;;;;;;-4.90;100.00;97996.03;1605646;88;21074;-73
2021/12/29 10:39:32;;;;;;;20.00;10.90;;;;;;;-4.97;100.00;97999.15;1557798;91;21554;-71
2021/12/29 10:42:03;;;;;;;19.70;10.30;;;;;;;-4.98;100.00;97997.95;1495305;93;21116;-72
2021/12/29 10:44:42;;;;;;;23.02;11.85;;;;;;;-4.98;100.00;97997.95;1511001;94;21554;-70
2021/12/29 10:47:23;;;;;;;20.70;11.43;;;;;;;-5.06;100.00;98007.80;1533236;92;21447;-77
2021/12/29 10:49:57;;;;;;;21.53;12.17;;;;;;;-5.09;100.00;98013.80;1538778;92;21045;-78
2021/12/29 10:52:36;;;;;;;25.67;14.10;;;;;;;-5.07;100.00;98010.55;1532155;93;21569;-76
2021/12/29 10:55:08;;;;;;;60.83;27.70;;;;;;;-5.06;100.00;98007.80;1510837;93;21162;-75
2021/12/29 10:57:35;;;;;;;27.27;14.55;;;;;;;-5.01;100.00;98008.27;1538077;93;21077;-76
2021/12/29 11:00:08;;;;;;;73.10;36.97;;;;;;;-5.00;100.00;98011.73;1516416;93;21069;-77
2021/12/29 11:02:35;;;;;;;85.17;44.88;;;;;;;-4.97;100.00;98013.64;1550489;93;21081;-76
2021/12/29 11:05:08;;;;;;;81.00;47.10;;;;;;;-4.98;100.00;98018.55;1550046;93;21033;-70
2021/12/29 11:07:36;;;;;;;38.10;23.35;;;;;;;-4.96;100.00;98012.70;1550548;91;21042;-79
2021/12/29 11:10:20;;;;;;;178.00;58.63;;;;;;;-4.93;100.00;98011.60;1545983;92;22005;-78
2021/12/29 11:12:50;;;;;;;62.83;30.37;;;;;;;-4.93;100.00;98021.31;1515764;95;21087;-74
2021/12/29 11:15:22;;;;;;;72.03;28.63;;;;;;;-4.92;100.00;98019.02;1568888;91;21033;-79
2021/12/29 11:17:53;;;;;;;66.10;23.03;;;;;;;-4.90;100.00;98026.35;1518148;92;21101;-78
2021/12/29 11:20:23;;;;;;;66.80;20.47;;;;;;;-4.89;100.00;98026.69;1522694;93;21066;-78
2021/12/29 11:22:51;;;;;;;56.40;17.37;;;;;;;-4.95;100.00;98029.34;1516884;93;21154;-76
2021/12/29 11:25:31;;;;;;;100.97;27.83;;;;;;;-4.96;100.00;98028.97;1515805;94;21134;-77